sensor_id;sensor_type;location;lat;lon;timestamp;pressure;altitude;pressure_sealevel;temperature;humidity
56241;BME280;42155;53.096;23.226;2023-03-24T00:00:58;99097.81;;;9.96;79.94
56241;BME280;42155;53.096;23.226;2023-03-24T00:02:58;99116.91;;;10.00;80.00
56241;BME280;42155;53.096;23.226;2023-03-24T00:04:59;99099.63;;;9.86;79.88
56241;BME280;42155;53.096;23.226;2023-03-24T00:06:59;99119.16;;;10.04;79.95
56241;BME280;42155;53.096;23.226;2023-03-24T00:09:00;99106.88;;;10.03;79.65
56241;BME280;42155;53.096;23.226;2023-03-24T00:11:01;99124.16;;;10.07;80.23
56241;BME280;42155;53.096;23.226;2023-03-24T00:13:03;99121.38;;;10.09;80.18
56241;BME280;42155;53.096;23.226;2023-03-24T00:15:08;99121.94;;;10.12;80.22
56241;BME280;42155;53.096;23.226;2023-03-24T00:17:10;99096.13;;;9.95;79.95
56241;BME280;42155;53.096;23.226;2023-03-24T00:19:11;99156.25;;;10.24;79.64
56241;BME280;42155;53.096;23.226;2023-03-24T00:21:11;99150.69;;;10.27;79.70
56241;BME280;42155;53.096;23.226;2023-03-24T00:23:12;99148.72;;;10.29;79.71
56241;BME280;42155;53.096;23.226;2023-03-24T00:25:13;99149.03;;;10.35;79.94
56241;BME280;42155;53.096;23.226;2023-03-24T00:27:13;99132.53;;;10.32;79.68
56241;BME280;42155;53.096;23.226;2023-03-24T00:29:14;99129.47;;;10.36;79.98
56241;BME280;42155;53.096;23.226;2023-03-24T00:31:15;99138.66;;;10.42;79.65
56241;BME280;42155;53.096;23.226;2023-03-24T00:33:16;99140.75;;;10.38;79.86
56241;BME280;42155;53.096;23.226;2023-03-24T00:35:16;99140.91;;;10.37;80.07
56241;BME280;42155;53.096;23.226;2023-03-24T00:37:17;99138.69;;;10.32;80.12
56241;BME280;42155;53.096;23.226;2023-03-24T00:39:18;99141.19;;;10.34;79.70
56241;BME280;42155;53.096;23.226;2023-03-24T00:41:19;99146.78;;;10.31;80.11
56241;BME280;42155;53.096;23.226;2023-03-24T00:43:19;99140.94;;;10.27;80.32
56241;BME280;42155;53.096;23.226;2023-03-24T00:45:20;99129.88;;;10.22;80.35
56241;BME280;42155;53.096;23.226;2023-03-24T00:47:21;99117.72;;;10.19;80.04
56241;BME280;42155;53.096;23.226;2023-03-24T00:49:23;99121.09;;;10.22;79.99
56241;BME280;42155;53.096;23.226;2023-03-24T00:51:24;99046.06;;;9.73;79.81
56241;BME280;42155;53.096;23.226;2023-03-24T00:53:24;99118.88;;;10.17;79.46
56241;BME280;42155;53.096;23.226;2023-03-24T00:55:24;99123.19;;;10.18;79.61
56241;BME280;42155;53.096;23.226;2023-03-24T00:57:25;99134.22;;;10.13;79.92
56241;BME280;42155;53.096;23.226;2023-03-24T00:59:25;99131.97;;;10.09;79.91
56241;BME280;42155;53.096;23.226;2023-03-24T01:01:27;99128.63;;;10.07;79.97
56241;BME280;42155;53.096;23.226;2023-03-24T01:03:27;99123.63;;;10.04;79.39
56241;BME280;42155;53.096;23.226;2023-03-24T01:05:29;99118.59;;;10.01;79.77
56241;BME280;42155;53.096;23.226;2023-03-24T01:07:30;99126.69;;;9.99;80.00
56241;BME280;42155;53.096;23.226;2023-03-24T01:09:30;99130.28;;;9.98;79.34
56241;BME280;42155;53.096;23.226;2023-03-24T01:11:34;99126.81;;;9.98;79.23
56241;BME280;42155;53.096;23.226;2023-03-24T01:13:35;99130.03;;;9.91;79.93
56241;BME280;42155;53.096;23.226;2023-03-24T01:15:35;99129.47;;;9.88;79.76
56241;BME280;42155;53.096;23.226;2023-03-24T01:17:36;99129.19;;;9.81;79.55
56241;BME280;42155;53.096;23.226;2023-03-24T01:19:36;99138.97;;;9.81;79.36
56241;BME280;42155;53.096;23.226;2023-03-24T01:21:39;99147.84;;;9.70;79.28
56241;BME280;42155;53.096;23.226;2023-03-24T01:23:39;99139.47;;;9.65;79.36
56241;BME280;42155;53.096;23.226;2023-03-24T01:25:41;99152.03;;;9.63;78.95
56241;BME280;42155;53.096;23.226;2023-03-24T01:27:42;99157.03;;;9.56;78.88
56241;BME280;42155;53.096;23.226;2023-03-24T01:29:43;99135.00;;;9.46;79.27
56241;BME280;42155;53.096;23.226;2023-03-24T01:31:43;99144.19;;;9.42;79.26
56241;BME280;42155;53.096;23.226;2023-03-24T01:33:44;99139.44;;;9.36;79.08
56241;BME280;42155;53.096;23.226;2023-03-24T01:35:44;99140.69;;;9.32;79.30
56241;BME280;42155;53.096;23.226;2023-03-24T01:37:45;99141.09;;;9.27;79.48
56241;BME280;42155;53.096;23.226;2023-03-24T01:39:45;99131.16;;;9.19;79.19
56241;BME280;42155;53.096;23.226;2023-03-24T01:41:46;99132.13;;;9.09;78.85
56241;BME280;42155;53.096;23.226;2023-03-24T01:43:46;99117.03;;;9.00;79.12
56241;BME280;42155;53.096;23.226;2023-03-24T01:46:20;99150.06;;;9.05;79.21
56241;BME280;42155;53.096;23.226;2023-03-24T01:51:01;99109.25;;;8.67;78.88
56241;BME280;42155;53.096;23.226;2023-03-24T01:53:03;99111.00;;;8.57;78.71
56241;BME280;42155;53.096;23.226;2023-03-24T01:55:13;99147.69;;;8.72;78.92
56241;BME280;42155;53.096;23.226;2023-03-24T01:57:20;99142.22;;;8.63;79.04
56241;BME280;42155;53.096;23.226;2023-03-24T01:59:27;99097.47;;;8.30;78.64
56241;BME280;42155;53.096;23.226;2023-03-24T02:01:29;99146.88;;;8.50;78.65
56241;BME280;42155;53.096;23.226;2023-03-24T02:03:30;99129.88;;;8.43;79.18
56241;BME280;42155;53.096;23.226;2023-03-24T02:05:32;99139.59;;;8.43;78.46
56241;BME280;42155;53.096;23.226;2023-03-24T02:07:38;99134.72;;;8.38;78.93
56241;BME280;42155;53.096;23.226;2023-03-24T02:09:40;99138.69;;;8.32;78.68
56241;BME280;42155;53.096;23.226;2023-03-24T02:11:42;99140.00;;;8.27;78.33
56241;BME280;42155;53.096;23.226;2023-03-24T02:13:42;99142.94;;;8.24;78.44
56241;BME280;42155;53.096;23.226;2023-03-24T02:20:29;99142.97;;;8.12;78.00
56241;BME280;42155;53.096;23.226;2023-03-24T02:37:27;99146.84;;;7.76;78.56
56241;BME280;42155;53.096;23.226;2023-03-24T02:39:40;99141.00;;;7.73;77.99
56241;BME280;42155;53.096;23.226;2023-03-24T02:46:24;99132.41;;;7.48;78.05
56241;BME280;42155;53.096;23.226;2023-03-24T02:52:45;99153.53;;;7.48;78.31
56241;BME280;42155;53.096;23.226;2023-03-24T02:54:59;99140.59;;;7.45;78.44
56241;BME280;42155;53.096;23.226;2023-03-24T02:57:10;99108.25;;;7.21;78.45
56241;BME280;42155;53.096;23.226;2023-03-24T03:02:05;99048.13;;;6.81;78.58
56241;BME280;42155;53.096;23.226;2023-03-24T03:06:25;99148.28;;;7.37;78.94
56241;BME280;42155;53.096;23.226;2023-03-24T03:08:28;99150.09;;;7.36;79.46
56241;BME280;42155;53.096;23.226;2023-03-24T03:10:33;99136.44;;;7.31;79.43
56241;BME280;42155;53.096;23.226;2023-03-24T03:12:36;99149.50;;;7.33;79.11
56241;BME280;42155;53.096;23.226;2023-03-24T03:14:45;99120.50;;;7.22;79.21
56241;BME280;42155;53.096;23.226;2023-03-24T03:16:51;99140.88;;;7.31;79.08
56241;BME280;42155;53.096;23.226;2023-03-24T03:18:57;99106.09;;;7.14;78.96
56241;BME280;42155;53.096;23.226;2023-03-24T03:21:03;99126.16;;;7.17;79.07
56241;BME280;42155;53.096;23.226;2023-03-24T03:23:11;99138.34;;;7.29;78.89
56241;BME280;42155;53.096;23.226;2023-03-24T03:25:15;99142.06;;;7.27;79.23
56241;BME280;42155;53.096;23.226;2023-03-24T03:27:44;99133.06;;;7.29;79.64
56241;BME280;42155;53.096;23.226;2023-03-24T03:29:48;99149.72;;;7.30;79.64
56241;BME280;42155;53.096;23.226;2023-03-24T03:31:55;99123.75;;;7.14;79.36
56241;BME280;42155;53.096;23.226;2023-03-24T03:38:16;99101.22;;;6.87;79.44
56241;BME280;42155;53.096;23.226;2023-03-24T03:40:28;99117.16;;;6.86;79.30
56241;BME280;42155;53.096;23.226;2023-03-24T03:42:31;99149.03;;;7.05;79.70
56241;BME280;42155;53.096;23.226;2023-03-24T03:44:31;99147.75;;;7.00;79.16
56241;BME280;42155;53.096;23.226;2023-03-24T03:46:33;99122.81;;;6.81;79.12
56241;BME280;42155;53.096;23.226;2023-03-24T03:48:35;99140.91;;;6.86;78.95
56241;BME280;42155;53.096;23.226;2023-03-24T03:50:36;99082.66;;;6.44;78.81
56241;BME280;42155;53.096;23.226;2023-03-24T03:52:37;99146.06;;;6.76;79.08
56241;BME280;42155;53.096;23.226;2023-03-24T03:54:40;99150.72;;;6.73;79.37
56241;BME280;42155;53.096;23.226;2023-03-24T03:56:41;99147.63;;;6.68;78.84
56241;BME280;42155;53.096;23.226;2023-03-24T03:58:42;99144.97;;;6.56;79.21
56241;BME280;42155;53.096;23.226;2023-03-24T04:00:43;99146.66;;;6.57;78.94
56241;BME280;42155;53.096;23.226;2023-03-24T04:07:20;99143.16;;;6.46;78.62
56241;BME280;42155;53.096;23.226;2023-03-24T04:18:53;99161.09;;;6.41;78.76
56241;BME280;42155;53.096;23.226;2023-03-24T04:28:00;99150.09;;;6.47;78.37
56241;BME280;42155;53.096;23.226;2023-03-24T04:34:37;99154.31;;;6.60;78.26
56241;BME280;42155;53.096;23.226;2023-03-24T04:36:44;99159.34;;;6.63;77.49
56241;BME280;42155;53.096;23.226;2023-03-24T04:38:49;99157.31;;;6.67;77.51
56241;BME280;42155;53.096;23.226;2023-03-24T04:40:52;99150.72;;;6.73;77.44
56241;BME280;42155;53.096;23.226;2023-03-24T04:42:55;99133.47;;;6.69;77.58
56241;BME280;42155;53.096;23.226;2023-03-24T04:44:56;99151.31;;;6.87;77.83
56241;BME280;42155;53.096;23.226;2023-03-24T04:47:00;99151.56;;;6.96;77.61
56241;BME280;42155;53.096;23.226;2023-03-24T04:49:02;99154.31;;;7.05;77.05
56241;BME280;42155;53.096;23.226;2023-03-24T04:51:03;99150.00;;;7.15;76.88
56241;BME280;42155;53.096;23.226;2023-03-24T04:53:04;99155.28;;;7.27;77.25
56241;BME280;42155;53.096;23.226;2023-03-24T04:55:27;99157.03;;;7.37;77.22
56241;BME280;42155;53.096;23.226;2023-03-24T04:57:29;99158.56;;;7.51;76.91
56241;BME280;42155;53.096;23.226;2023-03-24T04:59:30;99164.78;;;7.61;76.75
56241;BME280;42155;53.096;23.226;2023-03-24T05:01:30;99165.00;;;7.70;76.75
56241;BME280;42155;53.096;23.226;2023-03-24T05:03:31;99130.34;;;7.63;76.39
56241;BME280;42155;53.096;23.226;2023-03-24T05:05:31;99163.97;;;7.93;75.97
56241;BME280;42155;53.096;23.226;2023-03-24T05:07:31;99162.13;;;8.05;75.48
56241;BME280;42155;53.096;23.226;2023-03-24T05:09:32;99169.69;;;8.09;75.46
56241;BME280;42155;53.096;23.226;2023-03-24T05:11:32;99131.03;;;7.97;74.96
56241;BME280;42155;53.096;23.226;2023-03-24T05:13:33;99174.09;;;8.41;74.76
56241;BME280;42155;53.096;23.226;2023-03-24T05:15:33;99166.69;;;8.56;74.04
56241;BME280;42155;53.096;23.226;2023-03-24T05:17:34;99175.31;;;8.58;74.40
56241;BME280;42155;53.096;23.226;2023-03-24T05:19:34;99186.72;;;8.58;74.37
56241;BME280;42155;53.096;23.226;2023-03-24T05:21:36;99184.28;;;8.66;74.65
56241;BME280;42155;53.096;23.226;2023-03-24T05:23:36;99173.41;;;8.60;74.61
56241;BME280;42155;53.096;23.226;2023-03-24T05:25:36;99168.03;;;8.50;74.78
56241;BME280;42155;53.096;23.226;2023-03-24T05:27:37;99175.19;;;8.59;74.75
56241;BME280;42155;53.096;23.226;2023-03-24T05:29:37;99163.38;;;8.63;75.13
56241;BME280;42155;53.096;23.226;2023-03-24T05:31:37;99145.78;;;9.14;74.38
56241;BME280;42155;53.096;23.226;2023-03-24T05:33:38;99154.84;;;10.19;72.39
56241;BME280;42155;53.096;23.226;2023-03-24T05:35:38;99160.59;;;11.46;69.49
56241;BME280;42155;53.096;23.226;2023-03-24T05:37:38;99159.56;;;12.64;67.18
56241;BME280;42155;53.096;23.226;2023-03-24T05:39:39;99152.25;;;13.68;64.73
56241;BME280;42155;53.096;23.226;2023-03-24T05:41:39;99129.47;;;14.56;62.66
56241;BME280;42155;53.096;23.226;2023-03-24T05:43:39;99148.44;;;15.33;61.29
56241;BME280;42155;53.096;23.226;2023-03-24T05:45:40;99129.28;;;15.52;60.58
56241;BME280;42155;53.096;23.226;2023-03-24T05:47:40;99138.00;;;16.08;59.80
56241;BME280;42155;53.096;23.226;2023-03-24T05:49:41;99123.25;;;16.12;59.44
56241;BME280;42155;53.096;23.226;2023-03-24T05:51:42;99135.84;;;16.03;59.97
56241;BME280;42155;53.096;23.226;2023-03-24T05:53:42;99134.09;;;15.96;60.18
56241;BME280;42155;53.096;23.226;2023-03-24T05:55:44;99101.38;;;15.86;60.13
56241;BME280;42155;53.096;23.226;2023-03-24T05:57:44;99108.88;;;15.90;60.04
56241;BME280;42155;53.096;23.226;2023-03-24T05:59:45;99123.22;;;15.66;60.99
56241;BME280;42155;53.096;23.226;2023-03-24T06:01:45;99148.81;;;15.69;61.30
56241;BME280;42155;53.096;23.226;2023-03-24T06:03:46;99137.16;;;15.85;60.69
56241;BME280;42155;53.096;23.226;2023-03-24T06:05:46;99154.44;;;16.05;60.95
56241;BME280;42155;53.096;23.226;2023-03-24T06:07:46;99146.97;;;16.15;60.84
56241;BME280;42155;53.096;23.226;2023-03-24T06:09:47;99143.97;;;16.18;60.62
56241;BME280;42155;53.096;23.226;2023-03-24T06:11:47;99138.09;;;16.38;60.61
56241;BME280;42155;53.096;23.226;2023-03-24T06:13:47;99135.72;;;16.43;60.16
56241;BME280;42155;53.096;23.226;2023-03-24T06:15:48;99070.34;;;15.76;60.41
56241;BME280;42155;53.096;23.226;2023-03-24T06:17:48;99105.19;;;15.91;60.55
56241;BME280;42155;53.096;23.226;2023-03-24T06:19:49;99134.66;;;15.83;61.27
56241;BME280;42155;53.096;23.226;2023-03-24T06:21:50;99135.16;;;15.47;61.60
56241;BME280;42155;53.096;23.226;2023-03-24T06:23:50;99128.94;;;15.24;62.33
56241;BME280;42155;53.096;23.226;2023-03-24T06:25:52;99095.88;;;14.77;63.01
56241;BME280;42155;53.096;23.226;2023-03-24T06:27:52;99147.56;;;14.93;63.06
56241;BME280;42155;53.096;23.226;2023-03-24T06:29:52;99137.88;;;15.00;63.15
56241;BME280;42155;53.096;23.226;2023-03-24T06:31:53;99137.84;;;15.16;62.86
56241;BME280;42155;53.096;23.226;2023-03-24T06:33:53;99106.09;;;15.13;62.63
56241;BME280;42155;53.096;23.226;2023-03-24T06:35:53;99135.88;;;15.41;62.41
56241;BME280;42155;53.096;23.226;2023-03-24T06:37:54;99131.84;;;15.45;62.30
56241;BME280;42155;53.096;23.226;2023-03-24T06:39:54;99055.88;;;15.00;62.30
56241;BME280;42155;53.096;23.226;2023-03-24T06:41:55;99131.28;;;15.27;62.32
56241;BME280;42155;53.096;23.226;2023-03-24T06:43:55;99124.69;;;14.98;63.09
56241;BME280;42155;53.096;23.226;2023-03-24T06:45:56;99132.94;;;14.81;63.53
56241;BME280;42155;53.096;23.226;2023-03-24T06:47:56;99133.97;;;14.63;64.11
56241;BME280;42155;53.096;23.226;2023-03-24T06:49:57;99127.28;;;14.51;64.38
56241;BME280;42155;53.096;23.226;2023-03-24T06:51:57;99096.28;;;14.25;64.89
56241;BME280;42155;53.096;23.226;2023-03-24T06:53:57;99124.63;;;14.35;65.16
56241;BME280;42155;53.096;23.226;2023-03-24T06:55:58;99125.97;;;14.31;65.17
56241;BME280;42155;53.096;23.226;2023-03-24T06:57:58;99067.59;;;13.95;65.77
56241;BME280;42155;53.096;23.226;2023-03-24T06:59:59;99120.63;;;14.22;65.87
56241;BME280;42155;53.096;23.226;2023-03-24T07:01:59;99108.28;;;14.13;66.21
56241;BME280;42155;53.096;23.226;2023-03-24T07:03:59;99126.28;;;14.27;66.25
56241;BME280;42155;53.096;23.226;2023-03-24T07:06:00;99128.63;;;14.22;65.77
56241;BME280;42155;53.096;23.226;2023-03-24T07:08:00;99133.13;;;14.22;65.91
56241;BME280;42155;53.096;23.226;2023-03-24T07:10:01;99109.97;;;14.06;65.85
56241;BME280;42155;53.096;23.226;2023-03-24T07:12:01;99119.78;;;14.14;65.98
56241;BME280;42155;53.096;23.226;2023-03-24T07:14:01;99126.31;;;14.11;65.94
56241;BME280;42155;53.096;23.226;2023-03-24T07:16:02;99112.28;;;14.09;66.17
56241;BME280;42155;53.096;23.226;2023-03-24T07:18:02;99111.94;;;14.12;66.38
56241;BME280;42155;53.096;23.226;2023-03-24T07:20:03;99112.97;;;14.19;66.38
56241;BME280;42155;53.096;23.226;2023-03-24T07:22:03;99077.63;;;14.01;66.23
56241;BME280;42155;53.096;23.226;2023-03-24T07:24:04;99117.44;;;14.35;66.47
56241;BME280;42155;53.096;23.226;2023-03-24T07:26:04;99116.94;;;14.40;66.22
56241;BME280;42155;53.096;23.226;2023-03-24T07:28:05;99112.25;;;14.42;65.73
56241;BME280;42155;53.096;23.226;2023-03-24T07:30:06;99055.59;;;14.07;65.71
56241;BME280;42155;53.096;23.226;2023-03-24T07:32:07;99088.59;;;14.31;65.87
56241;BME280;42155;53.096;23.226;2023-03-24T07:34:07;99115.59;;;14.44;65.76
56241;BME280;42155;53.096;23.226;2023-03-24T07:36:08;99109.25;;;14.45;66.16
56241;BME280;42155;53.096;23.226;2023-03-24T07:38:09;99097.94;;;14.43;66.20
56241;BME280;42155;53.096;23.226;2023-03-24T07:40:10;99089.25;;;14.49;65.45
56241;BME280;42155;53.096;23.226;2023-03-24T07:42:11;99088.75;;;14.54;65.55
56241;BME280;42155;53.096;23.226;2023-03-24T07:44:11;99098.56;;;14.69;65.66
56241;BME280;42155;53.096;23.226;2023-03-24T07:46:12;99099.22;;;14.80;65.31
56241;BME280;42155;53.096;23.226;2023-03-24T07:48:12;99090.84;;;14.83;64.86
56241;BME280;42155;53.096;23.226;2023-03-24T07:50:13;99088.47;;;14.88;64.73
56241;BME280;42155;53.096;23.226;2023-03-24T07:52:13;99092.16;;;14.87;64.86
56241;BME280;42155;53.096;23.226;2023-03-24T07:54:14;99086.19;;;14.85;64.65
56241;BME280;42155;53.096;23.226;2023-03-24T07:56:15;99094.84;;;14.87;65.08
56241;BME280;42155;53.096;23.226;2023-03-24T07:58:15;99020.50;;;14.43;65.28
56241;BME280;42155;53.096;23.226;2023-03-24T08:00:17;99044.19;;;14.62;65.60
56241;BME280;42155;53.096;23.226;2023-03-24T08:02:18;99099.16;;;14.96;65.30
56241;BME280;42155;53.096;23.226;2023-03-24T08:04:19;99078.81;;;14.87;64.89
56241;BME280;42155;53.096;23.226;2023-03-24T08:06:19;99081.78;;;14.92;64.83
56241;BME280;42155;53.096;23.226;2023-03-24T08:08:20;99095.13;;;15.00;65.18
56241;BME280;42155;53.096;23.226;2023-03-24T08:10:22;99060.91;;;14.95;65.26
56241;BME280;42155;53.096;23.226;2023-03-24T08:12:23;99060.38;;;15.08;64.78
56241;BME280;42155;53.096;23.226;2023-03-24T08:14:24;99096.47;;;15.35;64.46
56241;BME280;42155;53.096;23.226;2023-03-24T08:16:24;99096.56;;;15.50;63.93
56241;BME280;42155;53.096;23.226;2023-03-24T08:18:24;99093.84;;;15.58;63.70
56241;BME280;42155;53.096;23.226;2023-03-24T08:20:25;99080.09;;;15.69;63.59
56241;BME280;42155;53.096;23.226;2023-03-24T08:22:25;99083.06;;;15.74;63.58
56241;BME280;42155;53.096;23.226;2023-03-24T08:24:25;99090.06;;;15.75;63.14
56241;BME280;42155;53.096;23.226;2023-03-24T08:26:26;99083.06;;;15.74;63.26
56241;BME280;42155;53.096;23.226;2023-03-24T08:28:26;99084.72;;;15.75;63.27
56241;BME280;42155;53.096;23.226;2023-03-24T08:30:26;99074.97;;;15.83;63.07
56241;BME280;42155;53.096;23.226;2023-03-24T08:32:27;99055.56;;;15.81;63.13
56241;BME280;42155;53.096;23.226;2023-03-24T08:34:27;99067.81;;;15.98;63.04
56241;BME280;42155;53.096;23.226;2023-03-24T08:36:27;99060.81;;;15.97;62.61
56241;BME280;42155;53.096;23.226;2023-03-24T08:38:28;99071.75;;;16.10;62.12
56241;BME280;42155;53.096;23.226;2023-03-24T08:40:28;99058.06;;;16.05;62.34
56241;BME280;42155;53.096;23.226;2023-03-24T08:42:29;99076.00;;;16.19;62.06
56241;BME280;42155;53.096;23.226;2023-03-24T08:44:29;99049.84;;;16.07;62.28
56241;BME280;42155;53.096;23.226;2023-03-24T08:46:33;99042.31;;;16.10;62.12
56241;BME280;42155;53.096;23.226;2023-03-24T08:48:33;99056.06;;;16.22;62.04
56241;BME280;42155;53.096;23.226;2023-03-24T08:50:37;99055.50;;;16.26;62.27
56241;BME280;42155;53.096;23.226;2023-03-24T08:52:37;99057.75;;;16.23;62.16
56241;BME280;42155;53.096;23.226;2023-03-24T08:54:38;99060.25;;;16.24;62.32
56241;BME280;42155;53.096;23.226;2023-03-24T08:56:39;99047.88;;;16.23;62.29
56241;BME280;42155;53.096;23.226;2023-03-24T08:58:39;99040.38;;;16.19;62.60
56241;BME280;42155;53.096;23.226;2023-03-24T09:00:39;99053.03;;;16.25;61.89
56241;BME280;42155;53.096;23.226;2023-03-24T09:02:41;99058.19;;;16.26;62.04
56241;BME280;42155;53.096;23.226;2023-03-24T09:04:42;99052.94;;;16.18;62.03
56241;BME280;42155;53.096;23.226;2023-03-24T09:06:42;99059.13;;;16.19;61.91
56241;BME280;42155;53.096;23.226;2023-03-24T09:08:43;99058.66;;;16.15;61.60
56241;BME280;42155;53.096;23.226;2023-03-24T09:10:43;99052.47;;;16.15;61.88
56241;BME280;42155;53.096;23.226;2023-03-24T09:12:44;99044.25;;;16.16;61.32
56241;BME280;42155;53.096;23.226;2023-03-24T09:14:48;99022.25;;;16.06;61.68
56241;BME280;42155;53.096;23.226;2023-03-24T09:16:49;99036.50;;;16.21;61.16
56241;BME280;42155;53.096;23.226;2023-03-24T09:18:49;99051.13;;;16.34;60.89
56241;BME280;42155;53.096;23.226;2023-03-24T09:20:50;99041.22;;;16.34;60.83
56241;BME280;42155;53.096;23.226;2023-03-24T09:22:50;99032.72;;;16.30;61.17
56241;BME280;42155;53.096;23.226;2023-03-24T09:24:50;99015.47;;;16.18;61.54
56241;BME280;42155;53.096;23.226;2023-03-24T09:26:51;99025.34;;;16.33;61.27
56241;BME280;42155;53.096;23.226;2023-03-24T09:28:51;99034.56;;;16.45;61.33
56241;BME280;42155;53.096;23.226;2023-03-24T09:30:59;99023.72;;;16.46;61.26
56241;BME280;42155;53.096;23.226;2023-03-24T09:33:00;98998.59;;;16.33;61.02
56241;BME280;42155;53.096;23.226;2023-03-24T09:35:00;99012.25;;;16.38;60.94
56241;BME280;42155;53.096;23.226;2023-03-24T09:37:01;99021.09;;;16.38;61.02
56241;BME280;42155;53.096;23.226;2023-03-24T09:39:01;99031.28;;;16.43;60.80
56241;BME280;42155;53.096;23.226;2023-03-24T09:41:02;99026.94;;;16.42;61.08
56241;BME280;42155;53.096;23.226;2023-03-24T09:43:14;99029.41;;;16.43;60.69
56241;BME280;42155;53.096;23.226;2023-03-24T09:45:22;99022.41;;;16.42;60.83
56241;BME280;42155;53.096;23.226;2023-03-24T09:47:59;99031.91;;;16.45;60.91
56241;BME280;42155;53.096;23.226;2023-03-24T09:50:42;99023.88;;;16.45;60.52
56241;BME280;42155;53.096;23.226;2023-03-24T09:52:42;98975.84;;;16.14;60.11
56241;BME280;42155;53.096;23.226;2023-03-24T09:54:51;99028.38;;;16.29;60.29
56241;BME280;42155;53.096;23.226;2023-03-24T09:56:53;99025.44;;;16.24;60.47
56241;BME280;42155;53.096;23.226;2023-03-24T09:59:06;99017.00;;;16.13;60.45
56241;BME280;42155;53.096;23.226;2023-03-24T10:01:13;98964.47;;;15.59;60.66
56241;BME280;42155;53.096;23.226;2023-03-24T10:03:21;99026.47;;;15.86;61.69
56241;BME280;42155;53.096;23.226;2023-03-24T10:05:32;99020.88;;;15.72;62.29
56241;BME280;42155;53.096;23.226;2023-03-24T10:08:01;99019.78;;;15.67;62.56
56241;BME280;42155;53.096;23.226;2023-03-24T10:09:59;99005.59;;;15.58;62.68
56241;BME280;42155;53.096;23.226;2023-03-24T10:17:02;99019.66;;;15.52;64.27
56241;BME280;42155;53.096;23.226;2023-03-24T10:19:37;98986.88;;;15.35;64.37
56241;BME280;42155;53.096;23.226;2023-03-24T10:21:45;99003.38;;;15.39;64.43
56241;BME280;42155;53.096;23.226;2023-03-24T10:24:29;99004.38;;;15.38;64.55
56241;BME280;42155;53.096;23.226;2023-03-24T10:26:53;99003.25;;;15.32;64.85
56241;BME280;42155;53.096;23.226;2023-03-24T10:29:22;99000.47;;;15.25;65.51
56241;BME280;42155;53.096;23.226;2023-03-24T10:31:29;98999.47;;;15.26;65.74
56241;BME280;42155;53.096;23.226;2023-03-24T10:33:30;98995.25;;;15.32;66.09
56241;BME280;42155;53.096;23.226;2023-03-24T10:35:35;98991.41;;;15.35;66.08
56241;BME280;42155;53.096;23.226;2023-03-24T10:37:37;98961.06;;;15.19;65.91
56241;BME280;42155;53.096;23.226;2023-03-24T10:39:37;98988.53;;;15.36;66.30
56241;BME280;42155;53.096;23.226;2023-03-24T10:41:39;98962.88;;;15.27;66.25
56241;BME280;42155;53.096;23.226;2023-03-24T10:43:42;98979.16;;;15.40;66.35
56241;BME280;42155;53.096;23.226;2023-03-24T10:45:46;98971.59;;;15.44;66.07
56241;BME280;42155;53.096;23.226;2023-03-24T10:47:49;98954.66;;;15.28;65.70
56241;BME280;42155;53.096;23.226;2023-03-24T10:49:57;98964.66;;;15.35;65.99
56241;BME280;42155;53.096;23.226;2023-03-24T10:52:02;98927.59;;;15.09;66.13
56241;BME280;42155;53.096;23.226;2023-03-24T10:58:37;98957.91;;;15.16;66.21
56241;BME280;42155;53.096;23.226;2023-03-24T11:00:39;98968.59;;;15.16;66.69
56241;BME280;42155;53.096;23.226;2023-03-24T11:02:43;98941.50;;;14.96;66.80
56241;BME280;42155;53.096;23.226;2023-03-24T11:04:51;98950.31;;;15.05;66.78
56241;BME280;42155;53.096;23.226;2023-03-24T11:09:20;98921.88;;;14.89;66.93
56241;BME280;42155;53.096;23.226;2023-03-24T11:11:29;98936.84;;;14.98;67.11
56241;BME280;42155;53.096;23.226;2023-03-24T11:13:31;98933.19;;;14.91;67.17
56241;BME280;42155;53.096;23.226;2023-03-24T11:15:34;98913.56;;;14.84;67.59
56241;BME280;42155;53.096;23.226;2023-03-24T11:17:34;98922.94;;;14.80;67.91
56241;BME280;42155;53.096;23.226;2023-03-24T11:19:35;98927.78;;;14.76;68.34
56241;BME280;42155;53.096;23.226;2023-03-24T11:21:35;98923.97;;;14.70;68.10
56241;BME280;42155;53.096;23.226;2023-03-24T11:23:40;98925.34;;;14.66;68.38
56241;BME280;42155;53.096;23.226;2023-03-24T11:25:59;98925.50;;;14.65;68.56
56241;BME280;42155;53.096;23.226;2023-03-24T11:28:12;98910.38;;;14.57;69.10
56241;BME280;42155;53.096;23.226;2023-03-24T11:30:13;98919.72;;;14.53;68.76
56241;BME280;42155;53.096;23.226;2023-03-24T11:32:21;98932.72;;;14.56;69.06
56241;BME280;42155;53.096;23.226;2023-03-24T11:34:33;98928.69;;;14.60;69.42
56241;BME280;42155;53.096;23.226;2023-03-24T11:36:47;98915.66;;;14.65;68.88
56241;BME280;42155;53.096;23.226;2023-03-24T11:39:10;98918.16;;;14.67;69.22
56241;BME280;42155;53.096;23.226;2023-03-24T11:41:18;98911.28;;;14.72;69.09
56241;BME280;42155;53.096;23.226;2023-03-24T11:43:20;98881.34;;;14.54;68.89
56241;BME280;42155;53.096;23.226;2023-03-24T11:45:25;98904.28;;;14.71;69.10
56241;BME280;42155;53.096;23.226;2023-03-24T11:47:34;98858.03;;;14.40;68.88
56241;BME280;42155;53.096;23.226;2023-03-24T11:49:41;98900.09;;;14.69;69.47
56241;BME280;42155;53.096;23.226;2023-03-24T11:51:46;98884.31;;;14.59;69.63
56241;BME280;42155;53.096;23.226;2023-03-24T11:53:50;98892.63;;;14.64;70.01
56241;BME280;42155;53.096;23.226;2023-03-24T11:56:12;98892.63;;;14.64;70.46
56241;BME280;42155;53.096;23.226;2023-03-24T11:58:19;98884.31;;;14.59;70.62
56241;BME280;42155;53.096;23.226;2023-03-24T12:00:32;98886.84;;;14.52;71.38
56241;BME280;42155;53.096;23.226;2023-03-24T12:03:10;98881.34;;;14.46;71.51
56241;BME280;42155;53.096;23.226;2023-03-24T12:12:25;98881.34;;;14.15;73.13